Terminal Aerodrome Forecast
Issued by NWS

Home | Current Version | Previous Version | Text Only | Print | Product List | Glossary On
Versions: 1 2 3 4 5 6 7 8 9 10 11 12
591
FTPA31 PHFO 231130
TAFHOG
TAF
PHOG 231130Z 2312/2412 16005KT P6SM FEW025 SCT045
     FM231800 19011KT P6SM VCTS SCT025 BKN045CB OVC080
     FM240600 19011G18KT P6SM VCTS SCT025 BKN045CB OVC080
      AMD LTD TO VIS AND WIND TIL 231600=

USA.gov is the U.S. government's official web portal to all federal, state and local government web resources and services.